Terminal Aerodrome Forecast
Issued by NWS

Home | Current Version | Previous Version | Text Only | Print | Product List | Glossary On
Versions: 1 2 3 4 5 6 7 8 9 10 11 12 13 14
000
FTUS42 TJSJ 051146
TAFNCM
TAF
TNCM 051146Z 0512/0612 09008KT P6SM VCSH SCT018 SCT035
      TEMPO 0512/0514 -SHRA BKN018 BKN035
     FM051430 11012KT P6SM FEW020 SCT050
     FM052330 09006KT P6SM VCSH SCT019=

USA.gov is the U.S. government's official web portal to all federal, state and local government web resources and services.